Time;durP1;ratioP1;P1;durP2;ratioP2;P2;SDS_P1;SDS_P2;PMS_P1;PMS_P2;Temp;Humidity;BMP_temperature;BMP_pressure;BME280_temperature;BME280_humidity;BME280_pressure;Samples;Min_cycle;Max_cycle;Signal;HPM_P1;HPM_P2
2022/07/07 00:01:59;;;;;;;11.43;2.15;;;;;;;;;;5074117;28;20108;-61
2022/07/07 00:04:25;;;;;;;11.95;2.20;;;;;;;;;;5073910;28;20397;-61
2022/07/07 00:06:51;;;;;;;9.38;2.72;;;;;;;;;;5074105;28;20059;-61
2022/07/07 00:09:17;;;;;;;7.43;2.40;;;;;;;;;;5073037;28;20378;-61
2022/07/07 00:11:44;;;;;;;11.63;2.88;;;;;;;;;;5074110;28;20460;-61
2022/07/07 00:14:10;;;;;;;13.52;2.45;;;;;;;;;;5073868;28;20025;-61
2022/07/07 00:16:37;;;;;;;11.95;2.92;;;;;;;;;;5073500;28;20024;-61
2022/07/07 00:19:03;;;;;;;7.90;2.40;;;;;;;;;;5073714;28;20024;-62
2022/07/07 00:21:31;;;;;;;11.40;2.72;;;;;;;;;;5073388;28;20551;-61
2022/07/07 00:23:57;;;;;;;14.57;2.45;;;;;;;;;;5073427;28;20050;-62
2022/07/07 00:26:23;;;;;;;7.40;2.20;;;;;;;;;;5073694;28;20034;-62
2022/07/07 00:28:49;;;;;;;7.95;2.38;;;;;;;;;;5072785;28;20037;-61
2022/07/07 00:31:16;;;;;;;5.55;2.13;;;;;;;;;;5073420;28;20032;-61
2022/07/07 00:33:42;;;;;;;4.88;2.33;;;;;;;;;;5072876;28;20048;-61
2022/07/07 00:36:08;;;;;;;10.45;2.58;;;;;;;;;;5072772;28;20036;-62
2022/07/07 00:38:34;;;;;;;9.95;2.75;;;;;;;;;;5073399;28;20033;-61
2022/07/07 00:41:01;;;;;;;6.97;2.47;;;;;;;;;;5073253;28;20500;-62
2022/07/07 00:43:27;;;;;;;6.00;1.92;;;;;;;;;;5073238;28;20035;-62
2022/07/07 00:45:54;;;;;;;6.35;2.45;;;;;;;;;;5073152;28;20121;-62
2022/07/07 00:48:20;;;;;;;10.45;3.67;;;;;;;;;;5072867;28;20033;-61
2022/07/07 00:50:47;;;;;;;9.65;2.20;;;;;;;;;;5072845;28;20036;-61
2022/07/07 00:53:13;;;;;;;12.07;2.70;;;;;;;;;;5071460;28;20016;-62
2022/07/07 00:55:40;;;;;;;13.82;2.20;;;;;;;;;;5073083;28;20025;-62
2022/07/07 00:58:07;;;;;;;12.73;2.80;;;;;;;;;;5073273;28;20067;-62
2022/07/07 01:00:33;;;;;;;14.07;2.65;;;;;;;;;;5072848;28;20028;-62
2022/07/07 01:02:59;;;;;;;11.60;2.78;;;;;;;;;;5072271;28;20029;-62
2022/07/07 01:05:26;;;;;;;16.58;3.08;;;;;;;;;;5072517;28;20086;-62
2022/07/07 01:07:54;;;;;;;21.13;3.20;;;;;;;;;;5072927;28;20059;-62
2022/07/07 01:10:20;;;;;;;11.77;2.70;;;;;;;;;;5072659;28;20028;-62
2022/07/07 01:12:46;;;;;;;14.38;4.05;;;;;;;;;;5072860;28;20031;-62
2022/07/07 01:15:13;;;;;;;11.23;2.50;;;;;;;;;;5072112;28;20025;-62
2022/07/07 01:17:40;;;;;;;8.48;2.30;;;;;;;;;;5072521;28;20028;-62
2022/07/07 01:20:07;;;;;;;21.17;3.30;;;;;;;;;;5072429;28;20182;-62
2022/07/07 01:22:34;;;;;;;15.65;2.78;;;;;;;;;;5072342;28;20043;-62
2022/07/07 01:25:01;;;;;;;17.23;3.55;;;;;;;;;;5072241;28;20032;-62
2022/07/07 01:27:27;;;;;;;16.00;2.70;;;;;;;;;;5072002;28;20056;-62
2022/07/07 01:29:55;;;;;;;20.92;2.88;;;;;;;;;;5072382;28;20032;-62
2022/07/07 01:32:22;;;;;;;16.20;2.88;;;;;;;;;;5072749;28;20020;-62
2022/07/07 01:34:49;;;;;;;12.73;2.92;;;;;;;;;;5072201;28;20032;-62
2022/07/07 01:37:15;;;;;;;9.77;3.17;;;;;;;;;;5071771;28;20050;-62
2022/07/07 01:39:42;;;;;;;13.23;4.25;;;;;;;;;;5072305;28;20044;-62
2022/07/07 01:42:09;;;;;;;17.77;3.20;;;;;;;;;;5072546;28;20031;-62
2022/07/07 01:44:36;;;;;;;16.05;4.35;;;;;;;;;;5072190;28;20481;-62
2022/07/07 01:47:02;;;;;;;14.80;3.33;;;;;;;;;;5071459;28;20027;-62
2022/07/07 01:49:29;;;;;;;14.73;2.95;;;;;;;;;;5071689;28;20074;-62
2022/07/07 01:51:56;;;;;;;15.10;3.30;;;;;;;;;;5072414;28;20390;-62
2022/07/07 01:54:22;;;;;;;11.68;3.20;;;;;;;;;;5072043;28;20028;-62
2022/07/07 01:56:48;;;;;;;12.85;3.72;;;;;;;;;;5072176;28;20025;-62
2022/07/07 01:59:14;;;;;;;14.18;3.72;;;;;;;;;;5072294;28;20021;-62
2022/07/07 02:01:40;;;;;;;8.32;3.00;;;;;;;;;;5071310;28;20025;-62
2022/07/07 02:04:07;;;;;;;14.52;3.42;;;;;;;;;;5071780;28;20041;-62
2022/07/07 02:06:34;;;;;;;12.00;3.70;;;;;;;;;;5071601;28;20039;-62
2022/07/07 02:09:00;;;;;;;20.88;3.63;;;;;;;;;;5072001;28;20054;-62
2022/07/07 02:11:26;;;;;;;14.93;3.50;;;;;;;;;;5071992;28;20048;-62
2022/07/07 02:13:53;;;;;;;17.70;3.20;;;;;;;;;;5071943;28;20031;-62
2022/07/07 02:16:20;;;;;;;15.00;3.67;;;;;;;;;;5071959;28;20025;-62
2022/07/07 02:18:48;;;;;;;18.60;4.47;;;;;;;;;;5071679;28;20162;-62
2022/07/07 02:21:14;;;;;;;14.93;3.25;;;;;;;;;;5072193;28;20029;-62
2022/07/07 02:23:42;;;;;;;12.43;3.53;;;;;;;;;;5071336;28;20039;-61
2022/07/07 02:26:08;;;;;;;14.57;3.50;;;;;;;;;;5071978;28;20023;-62
2022/07/07 02:28:35;;;;;;;16.80;4.47;;;;;;;;;;5071342;28;20128;-62
2022/07/07 02:31:01;;;;;;;16.23;3.30;;;;;;;;;;5071420;28;20021;-62
2022/07/07 02:33:27;;;;;;;20.05;6.05;;;;;;;;;;5071205;28;20059;-62
2022/07/07 02:35:54;;;;;;;21.17;4.00;;;;;;;;;;5071917;28;20021;-62
2022/07/07 02:38:20;;;;;;;10.05;3.35;;;;;;;;;;5071792;28;20043;-62
2022/07/07 02:40:46;;;;;;;18.02;3.92;;;;;;;;;;5071418;28;20021;-62
2022/07/07 02:43:12;;;;;;;18.27;4.18;;;;;;;;;;5070794;28;20025;-62
2022/07/07 02:45:40;;;;;;;20.77;3.33;;;;;;;;;;5069839;28;20027;-62
2022/07/07 02:48:06;;;;;;;16.23;3.85;;;;;;;;;;5071422;28;20548;-62
2022/07/07 02:50:33;;;;;;;14.98;3.67;;;;;;;;;;5070979;28;20078;-62
2022/07/07 02:52:59;;;;;;;21.35;3.63;;;;;;;;;;5071894;28;20438;-62
2022/07/07 02:55:25;;;;;;;14.85;3.92;;;;;;;;;;5071538;28;20103;-62
2022/07/07 02:57:51;;;;;;;30.33;5.93;;;;;;;;;;5072892;28;20028;-62
2022/07/07 03:00:18;;;;;;;16.25;3.75;;;;;;;;;;5075347;28;20482;-62
2022/07/07 03:02:44;;;;;;;22.42;4.55;;;;;;;;;;5074672;28;20032;-62
2022/07/07 03:05:13;;;;;;;22.90;4.15;;;;;;;;;;5074503;28;20051;-62
2022/07/07 03:07:39;;;;;;;15.80;3.53;;;;;;;;;;5075037;28;20397;-62
2022/07/07 03:10:06;;;;;;;17.48;4.07;;;;;;;;;;5075143;28;20025;-62
2022/07/07 03:12:33;;;;;;;17.83;3.90;;;;;;;;;;5074498;28;20114;-62
2022/07/07 03:14:59;;;;;;;22.73;4.57;;;;;;;;;;5074971;28;20459;-61
2022/07/07 03:17:25;;;;;;;12.15;3.92;;;;;;;;;;5072413;28;20033;-62
2022/07/07 03:19:51;;;;;;;19.35;4.25;;;;;;;;;;5074664;28;20108;-62
2022/07/07 03:22:17;;;;;;;27.13;5.03;;;;;;;;;;5075240;28;20036;-62
2022/07/07 03:24:44;;;;;;;15.50;5.28;;;;;;;;;;5073976;28;20478;-62
2022/07/07 03:27:10;;;;;;;22.23;5.35;;;;;;;;;;5074691;28;20049;-62
2022/07/07 03:29:36;;;;;;;21.35;5.45;;;;;;;;;;5075105;28;20047;-62
2022/07/07 03:32:03;;;;;;;28.67;4.57;;;;;;;;;;5074724;28;20116;-71
2022/07/07 03:34:29;;;;;;;20.90;4.78;;;;;;;;;;5075327;28;20055;-62
2022/07/07 03:36:55;;;;;;;24.08;4.72;;;;;;;;;;5074637;28;20073;-62
2022/07/07 03:39:21;;;;;;;20.45;5.97;;;;;;;;;;5074963;28;20029;-62
2022/07/07 03:41:47;;;;;;;17.13;4.63;;;;;;;;;;5073672;28;20428;-62
2022/07/07 03:44:13;;;;;;;23.08;4.47;;;;;;;;;;5075133;28;20032;-62
2022/07/07 03:46:39;;;;;;;18.45;5.13;;;;;;;;;;5074575;28;20033;-62
2022/07/07 03:49:06;;;;;;;28.45;4.90;;;;;;;;;;5074452;28;20017;-62
2022/07/07 03:51:32;;;;;;;22.75;5.25;;;;;;;;;;5075117;28;20020;-62
2022/07/07 03:53:58;;;;;;;25.75;4.88;;;;;;;;;;5074596;28;20027;-62
2022/07/07 03:56:24;;;;;;;30.08;7.55;;;;;;;;;;5074970;28;20078;-61
2022/07/07 03:58:50;;;;;;;29.85;7.13;;;;;;;;;;5073648;28;20060;-61
2022/07/07 04:01:16;;;;;;;23.05;4.95;;;;;;;;;;5061671;28;21049;-61
2022/07/07 04:03:42;;;;;;;18.27;4.35;;;;;;;;;;5072264;28;20043;-61
2022/07/07 04:06:08;;;;;;;22.70;4.70;;;;;;;;;;5073800;28;20028;-61
2022/07/07 04:08:35;;;;;;;20.80;4.78;;;;;;;;;;5070542;28;20543;-62
2022/07/07 04:11:01;;;;;;;22.40;4.55;;;;;;;;;;5070716;28;20458;-61
2022/07/07 04:13:27;;;;;;;19.85;4.32;;;;;;;;;;5073661;28;20029;-62
2022/07/07 04:15:53;;;;;;;22.10;4.55;;;;;;;;;;5071679;28;20043;-62
2022/07/07 04:18:19;;;;;;;15.27;3.67;;;;;;;;;;5074194;28;20027;-62
2022/07/07 04:20:45;;;;;;;26.27;6.05;;;;;;;;;;5071842;28;20028;-62
2022/07/07 04:23:11;;;;;;;16.10;3.58;;;;;;;;;;5073186;28;20024;-62
2022/07/07 04:25:37;;;;;;;16.23;4.15;;;;;;;;;;5071335;28;20062;-62
2022/07/07 04:28:04;;;;;;;17.75;3.53;;;;;;;;;;5071151;28;20051;-62
2022/07/07 04:30:30;;;;;;;20.95;4.40;;;;;;;;;;5072206;28;20040;-62
2022/07/07 04:32:56;;;;;;;16.05;4.20;;;;;;;;;;5073931;28;20618;-61
2022/07/07 04:35:22;;;;;;;19.33;4.07;;;;;;;;;;5070105;28;20107;-61
2022/07/07 04:37:48;;;;;;;18.58;3.38;;;;;;;;;;5069048;28;20032;-61
2022/07/07 04:40:14;;;;;;;19.83;3.65;;;;;;;;;;5072385;28;20056;-61
2022/07/07 04:42:41;;;;;;;19.13;3.83;;;;;;;;;;5071483;28;20532;-61
2022/07/07 04:45:07;;;;;;;18.17;3.83;;;;;;;;;;5069763;28;20029;-61
2022/07/07 04:47:38;;;;;;;29.38;4.55;;;;;;;;;;5066569;28;23384;-61
2022/07/07 04:50:04;;;;;;;19.58;4.85;;;;;;;;;;5070981;28;20020;-61
2022/07/07 04:52:30;;;;;;;14.63;4.00;;;;;;;;;;5072467;28;20138;-61
2022/07/07 04:54:57;;;;;;;24.42;3.80;;;;;;;;;;5072073;28;20124;-61
2022/07/07 04:57:23;;;;;;;16.45;3.63;;;;;;;;;;5071335;28;20494;-62
2022/07/07 04:59:49;;;;;;;17.52;4.38;;;;;;;;;;5071656;28;20024;-62
2022/07/07 05:02:15;;;;;;;20.60;3.75;;;;;;;;;;5075912;28;20050;-61
2022/07/07 05:04:41;;;;;;;15.75;3.40;;;;;;;;;;5071801;28;20448;-62
2022/07/07 05:07:07;;;;;;;21.85;4.22;;;;;;;;;;5071329;28;20045;-62
2022/07/07 05:09:34;;;;;;;16.77;3.55;;;;;;;;;;5072343;28;20036;-61
2022/07/07 05:12:01;;;;;;;20.77;4.82;;;;;;;;;;5072154;28;20065;-61
2022/07/07 05:14:27;;;;;;;12.55;3.67;;;;;;;;;;5071747;28;20035;-61
2022/07/07 05:16:54;;;;;;;21.75;3.42;;;;;;;;;;5070467;28;20033;-62
2022/07/07 05:19:20;;;;;;;15.52;3.70;;;;;;;;;;5069191;28;20028;-61
2022/07/07 05:21:46;;;;;;;18.90;3.53;;;;;;;;;;5071766;28;20368;-61
2022/07/07 05:24:12;;;;;;;14.43;3.78;;;;;;;;;;5069078;28;20021;-62
2022/07/07 05:26:39;;;;;;;24.73;4.53;;;;;;;;;;5075936;28;20038;-62
2022/07/07 05:29:05;;;;;;;19.48;3.20;;;;;;;;;;5072106;28;20037;-63
2022/07/07 05:31:31;;;;;;;19.95;3.88;;;;;;;;;;5068142;28;20046;-62
2022/07/07 05:33:57;;;;;;;19.52;4.00;;;;;;;;;;5063264;28;20032;-62
2022/07/07 05:36:23;;;;;;;21.92;3.70;;;;;;;;;;5060329;28;20036;-63
2022/07/07 05:38:50;;;;;;;22.90;4.22;;;;;;;;;;5056067;28;20021;-63
2022/07/07 05:41:17;;;;;;;17.35;3.30;;;;;;;;;;5058655;28;20023;-62
2022/07/07 05:43:44;;;;;;;20.10;3.67;;;;;;;;;;5056300;28;20013;-62
2022/07/07 05:46:11;;;;;;;16.42;4.50;;;;;;;;;;5057822;28;20413;-63
2022/07/07 05:48:37;;;;;;;16.95;3.85;;;;;;;;;;5059431;28;20025;-62
2022/07/07 05:51:04;;;;;;;24.25;4.38;;;;;;;;;;5060481;28;20025;-62
2022/07/07 05:53:30;;;;;;;21.30;5.03;;;;;;;;;;5064058;28;20024;-62
2022/07/07 05:55:56;;;;;;;14.45;3.75;;;;;;;;;;5063909;28;20108;-62
2022/07/07 05:58:23;;;;;;;22.85;3.90;;;;;;;;;;5069807;28;20025;-62
2022/07/07 06:00:49;;;;;;;24.10;4.57;;;;;;;;;;5065083;28;20501;-62
2022/07/07 06:03:15;;;;;;;18.10;3.55;;;;;;;;;;5068284;28;20428;-62
2022/07/07 06:05:42;;;;;;;21.75;5.00;;;;;;;;;;5066641;28;20059;-62
2022/07/07 06:08:08;;;;;;;26.30;4.63;;;;;;;;;;5058175;28;20044;-62
2022/07/07 06:10:34;;;;;;;20.77;4.35;;;;;;;;;;5057593;28;20040;-62
2022/07/07 06:13:00;;;;;;;23.52;4.28;;;;;;;;;;5055389;28;20013;-62
2022/07/07 06:15:27;;;;;;;22.05;4.60;;;;;;;;;;5061647;28;20043;-62
2022/07/07 06:17:54;;;;;;;17.67;4.40;;;;;;;;;;5056811;28;20033;-62
2022/07/07 06:20:20;;;;;;;21.38;4.63;;;;;;;;;;5054371;28;20116;-62
2022/07/07 06:22:46;;;;;;;18.15;3.85;;;;;;;;;;5054723;28;20459;-62
2022/07/07 06:25:12;;;;;;;17.17;4.60;;;;;;;;;;5059798;28;20608;-62
2022/07/07 06:27:39;;;;;;;20.58;3.75;;;;;;;;;;5058052;28;20036;-62
2022/07/07 06:30:06;;;;;;;23.40;4.15;;;;;;;;;;5054053;28;20017;-62
2022/07/07 06:32:32;;;;;;;22.45;4.65;;;;;;;;;;5059962;28;20394;-62
2022/07/07 06:34:58;;;;;;;17.30;4.55;;;;;;;;;;5059478;28;20029;-62
2022/07/07 06:37:25;;;;;;;13.82;4.18;;;;;;;;;;5065700;28;20505;-62
2022/07/07 06:39:51;;;;;;;17.35;4.28;;;;;;;;;;5062721;28;20647;-62
2022/07/07 06:42:17;;;;;;;16.50;3.97;;;;;;;;;;5060879;28;20036;-64
2022/07/07 06:44:48;;;;;;;15.77;4.30;;;;;;;;;;5057529;28;20575;-62
2022/07/07 06:47:15;;;;;;;12.95;3.60;;;;;;;;;;5060588;28;20030;-62
2022/07/07 06:49:41;;;;;;;25.13;5.55;;;;;;;;;;5059323;28;20616;-62
2022/07/07 06:52:07;;;;;;;15.70;3.92;;;;;;;;;;5062217;28;20047;-62
2022/07/07 06:54:33;;;;;;;18.20;3.83;;;;;;;;;;5056913;28;20020;-62
2022/07/07 06:56:59;;;;;;;17.50;4.30;;;;;;;;;;5056975;28;20419;-62
2022/07/07 06:59:25;;;;;;;15.32;3.88;;;;;;;;;;5061176;28;20032;-62
2022/07/07 07:01:51;;;;;;;16.98;4.47;;;;;;;;;;5058646;28;20514;-62
2022/07/07 07:04:18;;;;;;;14.23;3.70;;;;;;;;;;5063162;28;20048;-62
2022/07/07 07:06:45;;;;;;;16.92;3.70;;;;;;;;;;5062464;28;20562;-62
2022/07/07 07:09:11;;;;;;;15.68;3.92;;;;;;;;;;5063528;28;20033;-62
2022/07/07 07:11:37;;;;;;;17.98;3.80;;;;;;;;;;5063641;28;20075;-62
2022/07/07 07:14:04;;;;;;;19.42;3.50;;;;;;;;;;5063563;28;20077;-62
2022/07/07 07:16:30;;;;;;;14.27;4.35;;;;;;;;;;5061496;28;20056;-62
2022/07/07 07:18:57;;;;;;;10.80;4.18;;;;;;;;;;5062760;28;20033;-62
2022/07/07 07:21:23;;;;;;;16.65;4.05;;;;;;;;;;5063033;28;20078;-62
2022/07/07 07:23:49;;;;;;;15.70;3.55;;;;;;;;;;5062645;28;20036;-62
2022/07/07 07:26:15;;;;;;;11.95;3.55;;;;;;;;;;5061679;28;20048;-62
2022/07/07 07:28:41;;;;;;;14.40;4.70;;;;;;;;;;5060023;28;20402;-62
2022/07/07 07:31:07;;;;;;;15.65;4.22;;;;;;;;;;5062000;28;20028;-62
2022/07/07 07:33:35;;;;;;;16.90;3.90;;;;;;;;;;5061161;28;20490;-62
2022/07/07 07:36:02;;;;;;;12.35;4.30;;;;;;;;;;5062971;28;20155;-62
2022/07/07 07:38:28;;;;;;;20.20;4.10;;;;;;;;;;5064497;28;20024;-61
2022/07/07 07:40:54;;;;;;;17.40;4.07;;;;;;;;;;5063189;28;20051;-62
2022/07/07 07:43:20;;;;;;;17.33;4.65;;;;;;;;;;5057851;28;20037;-62
2022/07/07 07:45:47;;;;;;;19.13;5.28;;;;;;;;;;5061901;28;20108;-62
2022/07/07 07:48:13;;;;;;;13.75;4.15;;;;;;;;;;5059721;28;20017;-62
2022/07/07 07:50:39;;;;;;;13.68;4.30;;;;;;;;;;5059606;28;20386;-62
2022/07/07 07:53:06;;;;;;;17.38;3.83;;;;;;;;;;5061981;28;20029;-62
2022/07/07 07:55:32;;;;;;;13.15;4.05;;;;;;;;;;5064536;28;20068;-62
2022/07/07 07:57:58;;;;;;;17.58;4.97;;;;;;;;;;5056843;28;20056;-62
2022/07/07 08:00:25;;;;;;;14.80;3.80;;;;;;;;;;5063882;28;20032;-62
2022/07/07 08:02:51;;;;;;;13.85;3.53;;;;;;;;;;5065237;28;20031;-62
2022/07/07 08:05:18;;;;;;;14.50;3.50;;;;;;;;;;5056485;28;20045;-62
2022/07/07 08:07:44;;;;;;;14.38;3.70;;;;;;;;;;5056927;28;20463;-62
2022/07/07 08:10:12;;;;;;;14.02;3.80;;;;;;;;;;5057004;28;20534;-62
2022/07/07 08:12:38;;;;;;;15.98;4.07;;;;;;;;;;5061729;28;20027;-62
2022/07/07 08:15:06;;;;;;;23.58;4.97;;;;;;;;;;5058229;28;20055;-62
2022/07/07 08:17:32;;;;;;;17.08;3.80;;;;;;;;;;5059363;28;20430;-62
2022/07/07 08:19:59;;;;;;;16.08;5.15;;;;;;;;;;5055041;28;20520;-62
2022/07/07 08:22:25;;;;;;;10.45;3.95;;;;;;;;;;5055463;28;20044;-62
2022/07/07 08:24:52;;;;;;;15.40;3.90;;;;;;;;;;5058432;28;20020;-61
2022/07/07 08:27:19;;;;;;;14.57;3.17;;;;;;;;;;5060835;28;20075;-62
2022/07/07 08:29:45;;;;;;;13.55;3.58;;;;;;;;;;5060629;28;20097;-62
2022/07/07 08:32:12;;;;;;;8.85;3.50;;;;;;;;;;5054819;28;20078;-62
2022/07/07 08:34:38;;;;;;;17.13;4.30;;;;;;;;;;5058447;28;20536;-62
2022/07/07 08:37:05;;;;;;;11.30;3.20;;;;;;;;;;5054533;28;20189;-62
2022/07/07 08:39:31;;;;;;;16.42;3.35;;;;;;;;;;5058335;28;20029;-62
2022/07/07 08:41:57;;;;;;;14.68;3.63;;;;;;;;;;5055453;28;20395;-62
2022/07/07 08:44:24;;;;;;;11.32;3.10;;;;;;;;;;5055271;28;20040;-62
2022/07/07 08:46:50;;;;;;;9.85;3.28;;;;;;;;;;5057637;28;20391;-61
2022/07/07 08:49:16;;;;;;;14.18;3.20;;;;;;;;;;5066847;28;20028;-62
2022/07/07 08:51:43;;;;;;;18.33;3.45;;;;;;;;;;5061340;28;20036;-62
2022/07/07 08:54:10;;;;;;;19.80;3.85;;;;;;;;;;5056389;28;20025;-60
2022/07/07 08:56:38;;;;;;;17.98;3.13;;;;;;;;;;5053788;28;20021;-61
2022/07/07 08:59:05;;;;;;;15.82;3.40;;;;;;;;;;5057393;28;20710;-61
2022/07/07 09:01:31;;;;;;;13.55;3.45;;;;;;;;;;5059275;28;20044;-61
2022/07/07 09:03:57;;;;;;;13.85;3.83;;;;;;;;;;5055765;28;20059;-61
2022/07/07 09:06:24;;;;;;;12.52;3.33;;;;;;;;;;5053099;28;20033;-61
2022/07/07 09:08:50;;;;;;;19.08;4.30;;;;;;;;;;5055289;28;20037;-61
2022/07/07 09:11:24;;;;;;;12.68;3.92;;;;;;;;;;5057222;28;20017;-61
2022/07/07 09:13:50;;;;;;;14.88;3.72;;;;;;;;;;5055426;28;20035;-61
2022/07/07 09:16:17;;;;;;;10.13;3.95;;;;;;;;;;5062014;28;20745;-61
2022/07/07 09:18:44;;;;;;;14.13;4.05;;;;;;;;;;5060016;28;20111;-62
2022/07/07 09:21:26;;;;;;;13.90;3.45;;;;;;;;;;5056965;28;20043;-61
2022/07/07 09:23:56;;;;;;;17.15;4.35;;;;;;;;;;5059706;28;20078;-61
2022/07/07 09:26:34;;;;;;;10.25;3.65;;;;;;;;;;5048990;28;20413;-61
2022/07/07 09:29:00;;;;;;;16.30;4.50;;;;;;;;;;5044955;28;20044;-61
2022/07/07 09:31:46;;;;;;;11.18;3.60;;;;;;;;;;5051843;28;20094;-61
2022/07/07 09:34:13;;;;;;;9.07;3.50;;;;;;;;;;5044986;28;20078;-61
2022/07/07 09:39:24;;;;;;;12.63;3.75;;;;;;;;;;5048684;28;20028;-61
2022/07/07 09:41:50;;;;;;;12.15;3.95;;;;;;;;;;5051765;28;20060;-62
2022/07/07 09:44:19;;;;;;;13.43;4.13;;;;;;;;;;5049752;28;20035;-61
2022/07/07 09:46:46;;;;;;;10.52;4.47;;;;;;;;;;5057240;28;20024;-61
2022/07/07 09:49:12;;;;;;;15.73;3.78;;;;;;;;;;5055573;28;20055;-61
2022/07/07 09:51:38;;;;;;;12.00;3.92;;;;;;;;;;5056806;28;20120;-61
2022/07/07 09:54:10;;;;;;;18.83;3.80;;;;;;;;;;5062536;28;20493;-61
2022/07/07 09:56:39;;;;;;;12.85;3.67;;;;;;;;;;5055056;28;20029;-61
2022/07/07 09:59:06;;;;;;;11.50;3.08;;;;;;;;;;5056853;28;20028;-61
2022/07/07 10:01:34;;;;;;;10.57;3.17;;;;;;;;;;5053531;28;20039;-61
2022/07/07 10:04:02;;;;;;;15.32;2.85;;;;;;;;;;5057349;28;20052;-61
2022/07/07 10:06:29;;;;;;;10.73;3.13;;;;;;;;;;5054558;28;20078;-61
2022/07/07 10:08:57;;;;;;;6.07;2.50;;;;;;;;;;5056618;28;20040;-61
2022/07/07 10:11:26;;;;;;;12.25;2.42;;;;;;;;;;5056147;28;20071;-61
2022/07/07 10:13:54;;;;;;;6.13;2.63;;;;;;;;;;5059550;28;20047;-62
2022/07/07 10:16:21;;;;;;;13.25;3.10;;;;;;;;;;5056688;28;20045;-61
2022/07/07 10:18:47;;;;;;;10.68;2.40;;;;;;;;;;5058498;28;20075;-62
2022/07/07 10:21:14;;;;;;;8.10;2.40;;;;;;;;;;5056782;28;20498;-61
2022/07/07 10:23:40;;;;;;;6.78;2.30;;;;;;;;;;5056025;28;20023;-61
2022/07/07 10:26:07;;;;;;;10.85;2.55;;;;;;;;;;5053320;28;20045;-61
2022/07/07 10:28:54;;;;;;;8.68;2.88;;;;;;;;;;5056655;28;20493;-62
2022/07/07 10:31:21;;;;;;;5.25;2.45;;;;;;;;;;5063190;28;20768;-62
2022/07/07 10:34:13;;;;;;;9.73;2.00;;;;;;;;;;5058269;28;20037;-61
2022/07/07 10:36:51;;;;;;;5.95;2.35;;;;;;;;;;5054496;28;20039;-62
2022/07/07 10:39:18;;;;;;;6.15;2.30;;;;;;;;;;5056366;28;20025;-62
2022/07/07 10:42:06;;;;;;;5.22;2.50;;;;;;;;;;5063930;28;20039;-61
2022/07/07 10:44:33;;;;;;;6.47;2.05;;;;;;;;;;5056225;28;20033;-61
2022/07/07 10:46:59;;;;;;;9.35;2.58;;;;;;;;;;5059284;28;20029;-62
2022/07/07 10:49:39;;;;;;;8.70;2.53;;;;;;;;;;5057797;28;20031;-62
2022/07/07 10:52:13;;;;;;;10.55;2.30;;;;;;;;;;5059887;28;20024;-62
2022/07/07 10:54:43;;;;;;;5.38;2.17;;;;;;;;;;5056269;28;20131;-62
2022/07/07 10:57:11;;;;;;;5.95;1.95;;;;;;;;;;5055603;28;20040;-62
2022/07/07 10:59:56;;;;;;;6.07;2.55;;;;;;;;;;5066221;28;20490;-62
2022/07/07 11:02:34;;;;;;;12.48;2.15;;;;;;;;;;5059436;28;20032;-62
2022/07/07 11:05:01;;;;;;;7.72;2.40;;;;;;;;;;5057356;28;20033;-61
2022/07/07 11:07:28;;;;;;;9.63;2.28;;;;;;;;;;5057483;28;20417;-62
2022/07/07 11:10:00;;;;;;;11.90;2.42;;;;;;;;;;5057139;28;20040;-62
2022/07/07 11:12:36;;;;;;;6.75;1.90;;;;;;;;;;5056402;28;20561;-61
2022/07/07 11:15:30;;;;;;;9.15;2.28;;;;;;;;;;5061139;28;20048;-62
2022/07/07 11:17:56;;;;;;;6.20;1.88;;;;;;;;;;5058185;28;20056;-62
2022/07/07 11:20:24;;;;;;;8.02;2.17;;;;;;;;;;5061211;28;20400;-68
2022/07/07 11:22:52;;;;;;;7.68;2.30;;;;;;;;;;5056056;28;20033;-61
2022/07/07 11:25:21;;;;;;;6.70;2.03;;;;;;;;;;5064607;28;20044;-60
2022/07/07 11:27:51;;;;;;;7.22;1.92;;;;;;;;;;5063268;28;20091;-61
2022/07/07 11:30:22;;;;;;;8.65;2.30;;;;;;;;;;5068187;28;20115;-61
2022/07/07 11:32:49;;;;;;;7.32;2.20;;;;;;;;;;5067773;28;20490;-61
2022/07/07 11:35:15;;;;;;;11.02;2.40;;;;;;;;;;5072438;28;20508;-61
2022/07/07 11:37:43;;;;;;;7.28;2.50;;;;;;;;;;5070386;28;20489;-61
2022/07/07 11:40:14;;;;;;;9.55;2.30;;;;;;;;;;5065026;28;20034;-61
2022/07/07 11:42:41;;;;;;;5.93;2.13;;;;;;;;;;5058288;28;20058;-62
2022/07/07 11:45:25;;;;;;;10.60;2.25;;;;;;;;;;5054523;28;20027;-61
2022/07/07 11:47:52;;;;;;;6.32;2.50;;;;;;;;;;5054076;28;20025;-62
2022/07/07 11:50:18;;;;;;;6.25;2.30;;;;;;;;;;5055098;28;20025;-62
2022/07/07 11:52:55;;;;;;;12.23;2.53;;;;;;;;;;5055360;28;20514;-61
2022/07/07 11:55:22;;;;;;;8.63;2.50;;;;;;;;;;5056044;28;20483;-62
2022/07/07 11:57:50;;;;;;;7.30;2.50;;;;;;;;;;5053196;28;20032;-61
2022/07/07 12:00:18;;;;;;;9.80;3.10;;;;;;;;;;5056347;28;20036;-62
2022/07/07 12:02:46;;;;;;;8.85;2.75;;;;;;;;;;5061285;28;20056;-62
2022/07/07 12:05:12;;;;;;;10.77;2.75;;;;;;;;;;5054332;28;20103;-61
2022/07/07 12:07:43;;;;;;;10.95;2.80;;;;;;;;;;5055262;28;20059;-61
2022/07/07 12:10:42;;;;;;;7.78;2.67;;;;;;;;;;5053018;28;20060;-61
2022/07/07 12:13:11;;;;;;;14.95;2.80;;;;;;;;;;5008980;28;20037;-61
2022/07/07 12:15:48;;;;;;;8.32;2.60;;;;;;;;;;5010188;28;20487;-62
2022/07/07 12:18:20;;;;;;;8.45;2.85;;;;;;;;;;5010252;28;20045;-62
2022/07/07 12:20:55;;;;;;;13.30;2.70;;;;;;;;;;5010004;28;20208;-62
2022/07/07 12:23:21;;;;;;;12.15;3.22;;;;;;;;;;5008308;28;20283;-62
2022/07/07 12:25:47;;;;;;;8.60;2.67;;;;;;;;;;5009750;28;20038;-62
2022/07/07 12:28:14;;;;;;;5.28;2.55;;;;;;;;;;5007714;28;20046;-62
2022/07/07 12:30:53;;;;;;;13.00;2.75;;;;;;;;;;5007534;28;20048;-62
2022/07/07 12:33:26;;;;;;;11.30;2.70;;;;;;;;;;5009699;28;20029;-62
2022/07/07 12:35:52;;;;;;;10.90;2.75;;;;;;;;;;5009631;28;20072;-62
2022/07/07 12:38:34;;;;;;;9.65;3.13;;;;;;;;;;5008679;28;20030;-62
2022/07/07 12:41:00;;;;;;;10.93;3.05;;;;;;;;;;5008028;28;20038;-62
2022/07/07 12:43:31;;;;;;;12.98;2.75;;;;;;;;;;5009226;28;20069;-61
2022/07/07 12:46:04;;;;;;;4.82;2.78;;;;;;;;;;5008148;28;20120;-62
2022/07/07 12:48:31;;;;;;;8.90;2.97;;;;;;;;;;5029639;28;20525;-62
2022/07/07 12:51:04;;;;;;;8.75;2.78;;;;;;;;;;5056230;28;20120;-62
2022/07/07 12:53:30;;;;;;;;;;;;;;;;;;5054001;28;20108;-62
2022/07/07 12:55:56;;;;;;;16.73;3.00;;;;;;;;;;5052350;28;20330;-62
2022/07/07 12:58:22;;;;;;;5.85;2.35;;;;;;;;;;5056246;28;20020;-61
2022/07/07 13:01:02;;;;;;;8.88;2.60;;;;;;;;;;5056071;28;20050;-62
2022/07/07 13:03:29;;;;;;;10.65;2.50;;;;;;;;;;5053231;28;20108;-62
2022/07/07 13:05:56;;;;;;;8.23;2.25;;;;;;;;;;5055741;28;20021;-61
2022/07/07 13:08:22;;;;;;;4.40;1.85;;;;;;;;;;5058096;28;20055;-61
2022/07/07 13:10:48;;;;;;;6.32;2.08;;;;;;;;;;5052569;28;20525;-62
2022/07/07 13:13:14;;;;;;;8.40;2.25;;;;;;;;;;5052921;28;20482;-61
2022/07/07 13:15:40;;;;;;;4.80;2.08;;;;;;;;;;5065927;28;20025;-61
2022/07/07 13:18:07;;;;;;;4.65;1.90;;;;;;;;;;5071824;28;20021;-61
2022/07/07 13:20:33;;;;;;;6.53;2.15;;;;;;;;;;5059977;28;20418;-62
2022/07/07 13:22:59;;;;;;;5.07;1.83;;;;;;;;;;5060322;28;20028;-62
2022/07/07 13:25:25;;;;;;;5.00;1.92;;;;;;;;;;5059330;28;20107;-67
2022/07/07 13:27:51;;;;;;;6.38;2.13;;;;;;;;;;5054178;28;20522;-61
2022/07/07 13:30:17;;;;;;;4.53;1.85;;;;;;;;;;5054776;28;20128;-61
2022/07/07 13:32:43;;;;;;;4.82;2.35;;;;;;;;;;5053436;28;20028;-61
2022/07/07 13:35:12;;;;;;;2.83;1.73;;;;;;;;;;5054923;28;20025;-61
2022/07/07 13:37:38;;;;;;;4.88;2.40;;;;;;;;;;5053179;28;20036;-61
2022/07/07 13:40:05;;;;;;;8.90;1.85;;;;;;;;;;5054300;28;20364;-61
2022/07/07 13:42:31;;;;;;;4.97;1.90;;;;;;;;;;5063055;28;20040;-61
2022/07/07 13:44:57;;;;;;;4.97;1.83;;;;;;;;;;5059264;28;20025;-61
2022/07/07 13:47:23;;;;;;;6.10;1.70;;;;;;;;;;5057390;28;20159;-61
2022/07/07 13:49:49;;;;;;;3.15;1.65;;;;;;;;;;5052413;28;20126;-61
2022/07/07 13:52:16;;;;;;;6.60;2.13;;;;;;;;;;5052920;28;20033;-61
2022/07/07 13:54:43;;;;;;;9.85;1.70;;;;;;;;;;5060668;28;20095;-61
2022/07/07 13:57:10;;;;;;;4.68;1.48;;;;;;;;;;5055743;28;20083;-61
2022/07/07 13:59:36;;;;;;;5.03;1.55;;;;;;;;;;5061438;28;20033;-62
2022/07/07 14:02:03;;;;;;;3.13;1.58;;;;;;;;;;5060054;28;20025;-61
2022/07/07 14:04:29;;;;;;;3.88;1.35;;;;;;;;;;5059667;28;20538;-61
2022/07/07 14:06:55;;;;;;;5.18;1.85;;;;;;;;;;5060132;28;20029;-61
2022/07/07 14:09:21;;;;;;;2.60;1.55;;;;;;;;;;5056732;28;20070;-62
2022/07/07 14:11:48;;;;;;;3.63;1.40;;;;;;;;;;5056612;28;20083;-61
2022/07/07 14:14:14;;;;;;;3.88;1.33;;;;;;;;;;5059332;28;20024;-61
2022/07/07 14:16:40;;;;;;;3.42;1.40;;;;;;;;;;5062907;28;20032;-62
2022/07/07 14:19:06;;;;;;;2.30;1.20;;;;;;;;;;5061742;28;20025;-61
2022/07/07 14:21:32;;;;;;;3.63;1.67;;;;;;;;;;5052870;28;20025;-61
2022/07/07 14:23:58;;;;;;;4.88;1.65;;;;;;;;;;5059107;28;20463;-62
2022/07/07 14:26:24;;;;;;;8.98;1.65;;;;;;;;;;5058785;28;20123;-61
2022/07/07 14:28:53;;;;;;;1.55;1.25;;;;;;;;;;5070371;28;20045;-61
2022/07/07 14:31:20;;;;;;;3.78;1.55;;;;;;;;;;5055608;28;20028;-61
2022/07/07 14:33:46;;;;;;;4.75;1.55;;;;;;;;;;5059310;28;20444;-61
2022/07/07 14:36:12;;;;;;;5.70;1.58;;;;;;;;;;5056434;28;20395;-62
2022/07/07 14:38:38;;;;;;;2.25;1.33;;;;;;;;;;5057479;28;20096;-61